• Join FlightAware (Why Join?)
  • Login
  • US Flag 
03:30AM EDT


 

Airport Tracker/Info


-or-


 

Live Flight TrackerFlight Track Log ✈ DAL488 ✈ 15-Jul-2013 ✈ MDSD / SDQ - KJFK

Flight Track Log - Related Links

Times and Time Zones

All times are in EDT time to prevent confusion due to time zone crossing. See the DAL488 flight status page for this flight to view local times or setup timezone preferences in your user account.

Time Position Orientation Groundspeed Altitude Reporting Facility
EDT Latitude Longitude Course Direction KTS MPH feet Rate Location/Type
06:43PM 18.7432 -69.7673 337° Northwest  Level FlightAware Approximate
06:44PM 18.8512 -69.8103 344° North  Level FlightAware Approximate
06:45PM 18.9625 -69.8437 344° North  Level FlightAware Approximate
06:46PM 19.0721 -69.8827 341° North  Level FlightAware Approximate
06:47PM 19.1813 -69.9229 341° North  Level FlightAware Approximate
06:48PM 19.2906 -69.9632 341° North  Level FlightAware Approximate
06:49PM 19.4147 -70.0126 339° North  Level FlightAware Approximate
06:50PM 19.5286 -70.0540 343° North  Level FlightAware Approximate
06:51PM 19.6435 -70.0923 343° North  Level FlightAware Approximate
06:51PM 19.3589 -69.9428 North 453 521 22,600  Level Miami Center
06:52PM 19.7589 -70.1276 338° Northwest  Level FlightAware Approximate
06:52PM 19.4794 -69.9850 342° North 453 521 24,000  Level Miami Center
06:53PM 19.8701 -70.1767 335° Northwest  Level FlightAware Approximate
06:53PM 19.5981 -70.0364 338° Northwest 453 521 25,300  Level Miami Center
06:54PM 19.9848 -70.2153 343° North  Level FlightAware Approximate
06:54PM 19.7192 -70.0900 337° Northwest 458 527 26,500  Level Miami Center
06:55PM 20.1002 -70.2518 343° North  Level FlightAware Approximate
06:55PM 19.8381 -70.1414 338° Northwest 464 534 27,600  Level Miami Center
06:56PM 20.2155 -70.2885 343° North  Level FlightAware Approximate
06:56PM 19.9647 -70.1839 342° North 464 534 28,500  Level Miami Center
06:57PM 20.3257 -70.3333 North  Level FlightAware Approximate
06:57PM 20.0878 -70.2375 338° Northwest 464 534 29,400  Level Miami Center
06:58PM 20.2128 -70.2867 340° North 469 540 30,400 1,200 Climbing Miami Center
06:59PM 20.3397 -70.3358 340° North 474 545 31,800 1,200 Climbing Miami Center
07:00PM 20.4711 -70.3342 North 474 545 32,900 1,080 Climbing Miami Center
07:01PM 20.6042 -70.3278 North 474 545 34,000 1,140 Climbing Miami Center
07:02PM 20.7350 -70.3172 North 474 545 35,200 960 Climbing Miami Center
07:03PM 20.8639 -70.3108 North 469 540 36,000 360 Climbing Miami Center
07:04PM 20.9928 -70.3025 North 463 533 36,000  Level Miami Center
07:05PM 21.1217 -70.2986 North 458 527 36,000  Level Miami Center
07:06PM 21.2486 -70.2881 North 458 527 36,000  Level Miami Center
07:07PM 21.3711 -70.2819 North 458 527 36,000  Level Miami Center
07:08PM 21.5022 -70.2733 North 458 527 36,000  Level Miami Center
07:09PM 21.6292 -70.2669 North 458 527 36,000  Level Miami Center
07:10PM 21.7558 -70.2586 North 458 527 36,000  Level Miami Center
07:11PM 21.8847 -70.2500 North 458 527 36,000  Level Miami Center
07:12PM 22.0117 -70.2436 North 458 527 36,000  Level Miami Center
07:13PM 22.1386 -70.2350 North 458 527 36,000  Level Miami Center
07:14PM 22.2697 -70.2283 North 458 527 36,000  Level Miami Center
07:15PM 22.3986 -70.2197 North 458 527 36,000  Level Miami Center
07:16PM 22.5256 -70.2108 North 458 527 36,000  Level Miami Center
07:17PM 22.6544 -70.2044 North 458 527 36,000  Level Miami Center
07:18PM 22.7814 -70.1956 North 458 527 36,000  Level Miami Center
07:19PM 22.9083 -70.1914 North 458 527 36,000  Level Miami Center
07:20PM 23.0353 -70.1825 North 458 527 36,000  Level Miami Center
07:21PM 23.1619 -70.1714 North 458 527 36,000  Level Miami Center
07:22PM 23.2889 -70.1625 North 458 527 36,000  Level Miami Center
07:23PM 23.4178 -70.1558 North 458 527 36,000  Level Miami Center
07:24PM 23.5447 -70.1444 North 458 527 36,000  Level Miami Center
07:25PM 23.6717 -70.1378 North 458 527 36,000  Level Miami Center
07:26PM 23.8006 -70.1308 North 458 527 36,000  Level Miami Center
07:27PM 23.9297 -70.1219 North 458 527 36,000  Level Miami Center
07:28PM 24.0542 -70.1106 North 458 527 36,000  Level Miami Center
07:29PM 24.1858 -70.1147 358° North 458 527 36,000  Level Miami Center
07:30PM 24.3150 -70.1078 North 458 527 36,000  Level Miami Center
07:31PM 24.4372 -70.0897 North 453 521 36,000  Level Miami Center
07:32PM 24.5644 -70.0853 North 453 521 36,000  Level Miami Center
07:33PM 24.6894 -70.0828 North 453 521 36,000  Level Miami Center
07:34PM 24.8161 -70.0714 North 453 521 36,000  Level Miami Center
07:35PM 24.9408 -70.0575 North 448 516 36,000  Level Miami Center
07:37PM 25.0000 -70.0500 348° North 461 531 36,000  Level New York Oceanic (ODAPS)
07:43PM 25.8812 -70.2552 348° North 461 531 36,000  Level FlightAware Transoceanic
07:44PM 26.0070 -70.2848 348° North 461 531 36,000  Level FlightAware Transoceanic
07:45PM 26.1329 -70.3144 348° North 461 531 36,000  Level FlightAware Transoceanic
07:46PM 26.2587 -70.3441 348° North 461 531 36,000  Level FlightAware Transoceanic
07:47PM 26.3846 -70.3739 348° North 461 531 36,000  Level FlightAware Transoceanic
07:48PM 26.5104 -70.4037 348° North 461 531 36,000  Level FlightAware Transoceanic
07:49PM 26.6362 -70.4336 348° North 461 531 36,000  Level FlightAware Transoceanic
07:50PM 26.7621 -70.4635 348° North 461 531 36,000  Level FlightAware Transoceanic
07:51PM 26.8879 -70.4936 348° North 461 531 36,000  Level FlightAware Transoceanic
07:52PM 27.0137 -70.5236 348° North 461 531 36,000  Level FlightAware Transoceanic
07:53PM 27.1395 -70.5538 348° North 461 531 36,000  Level FlightAware Transoceanic
07:54PM 27.2653 -70.5840 348° North 461 531 36,000  Level FlightAware Transoceanic
07:55PM 27.3911 -70.6143 348° North 461 531 36,000  Level FlightAware Transoceanic
07:56PM 27.5168 -70.6447 348° North 461 531 36,000  Level FlightAware Transoceanic
07:57PM 27.6426 -70.6751 348° North 461 531 36,000  Level FlightAware Transoceanic
07:58PM 27.7684 -70.7056 348° North 461 531 36,000  Level FlightAware Transoceanic
07:59PM 27.8941 -70.7362 348° North 461 531 36,000  Level FlightAware Transoceanic
08:00PM 28.0199 -70.7668 348° North 461 531 36,000  Level FlightAware Transoceanic
08:01PM 28.1457 -70.7975 348° North 461 531 36,000  Level FlightAware Transoceanic
08:02PM 28.2714 -70.8283 348° North 461 531 36,000  Level FlightAware Transoceanic
08:03PM 28.3971 -70.8592 348° North 461 531 36,000  Level FlightAware Transoceanic
08:04PM 28.5229 -70.8901 348° North 461 531 36,000  Level FlightAware Transoceanic
08:05PM 28.6486 -70.9211 348° North 461 531 36,000  Level FlightAware Transoceanic
08:06PM 28.7743 -70.9522 348° North 461 531 36,000  Level FlightAware Transoceanic
08:07PM 28.9000 -70.9833 348° North 461 531 36,000  Level FlightAware Transoceanic
08:08PM 29.0261 -71.0144 348° North 461 531 36,000  Level FlightAware Transoceanic
08:08PM 28.9000 -70.9833 348° North 456 525 36,000  Level New York Oceanic (ODAPS)
08:09PM 29.1522 -71.0455 348° North 461 531 36,000  Level FlightAware Transoceanic
08:10PM 29.2782 -71.0767 348° North 461 531 36,000  Level FlightAware Transoceanic
08:11PM 29.4043 -71.1079 348° North 461 531 36,000  Level FlightAware Transoceanic
08:12PM 29.5304 -71.1393 348° North 461 531 36,000  Level FlightAware Transoceanic
08:13PM 29.6564 -71.1707 348° North 461 531 36,000  Level FlightAware Transoceanic
08:14PM 29.6564 -71.1707 348° North 456 525 36,000  Level FlightAware Transoceanic
08:15PM 29.7825 -71.2022 348° North 456 525 36,000  Level FlightAware Transoceanic
08:16PM 29.9085 -71.2338 348° North 456 525 36,000  Level FlightAware Transoceanic
08:17PM 30.0346 -71.2654 348° North 456 525 36,000  Level FlightAware Transoceanic
08:18PM 30.1606 -71.2972 348° North 456 525 36,000  Level FlightAware Transoceanic
08:19PM 30.2866 -71.3290 348° North 456 525 36,000  Level FlightAware Transoceanic
08:20PM 30.4126 -71.3609 348° North 456 525 36,000  Level FlightAware Transoceanic
08:21PM 30.5386 -71.3929 348° North 456 525 36,000  Level FlightAware Transoceanic
08:22PM 30.6646 -71.4249 348° North 456 525 36,000  Level FlightAware Transoceanic
08:23PM 30.7906 -71.4571 348° North 456 525 36,000  Level FlightAware Transoceanic
08:24PM 30.9166 -71.4893 348° North 456 525 36,000  Level FlightAware Transoceanic
08:25PM 31.0425 -71.5216 348° North 456 525 36,000  Level FlightAware Transoceanic
08:26PM 31.1685 -71.5540 348° North 456 525 36,000  Level FlightAware Transoceanic
08:27PM 31.2945 -71.5865 348° North 456 525 36,000  Level FlightAware Transoceanic
08:28PM 31.4204 -71.6191 348° North 456 525 36,000  Level FlightAware Transoceanic
08:29PM 31.5463 -71.6518 348° North 456 525 36,000  Level FlightAware Transoceanic
08:30PM 31.6723 -71.6845 348° North 456 525 36,000  Level FlightAware Transoceanic
08:31PM 31.7982 -71.7174 347° North 456 525 36,000  Level FlightAware Transoceanic
08:32PM 31.9241 -71.7503 347° North 456 525 36,000  Level FlightAware Transoceanic
08:33PM 32.0500 -71.7833 347° North 456 525 36,000  Level FlightAware Transoceanic
08:34PM 32.1730 -71.8164 347° North 456 525 36,000  Level FlightAware Transoceanic
08:35PM 32.2959 -71.8495 347° North 456 525 36,000  Level FlightAware Transoceanic
08:36PM 32.4188 -71.8827 347° North 456 525 36,000  Level FlightAware Transoceanic
08:37PM 32.5417 -71.9159 347° North 456 525 36,000  Level FlightAware Transoceanic
08:38PM 32.6646 -71.9493 347° North 456 525 36,000  Level FlightAware Transoceanic
08:39PM 32.7876 -71.9828 347° North 456 525 36,000  Level FlightAware Transoceanic
08:40PM 32.9104 -72.0163 347° North 456 525 36,000  Level FlightAware Transoceanic
08:41PM 33.0283 -72.0352 352° North  Level FlightAware Approximate
08:42PM 33.0216 -72.0347 347° North  Level FlightAware Approximate
08:43PM 33.1374 -72.0669 347° North  Level FlightAware Approximate
08:44PM 33.2532 -72.0992 347° North  Level FlightAware Approximate
08:45PM 33.3690 -72.1316 347° North  Level FlightAware Approximate
08:46PM 33.4849 -72.1640 347° North  Level FlightAware Approximate
08:47PM 33.6007 -72.1965 347° North  Level FlightAware Approximate
08:48PM 33.7165 -72.2292 347° North  Level FlightAware Approximate
08:49PM 33.8323 -72.2619 347° North  Level FlightAware Approximate
08:50PM 33.9480 -72.2947 347° North  Level FlightAware Approximate
08:51PM 34.0662 -72.3088 356° North  Level FlightAware Approximate
08:52PM 34.1848 -72.3193 356° North  Level FlightAware Approximate
08:56PM 34.8953 -72.3728 356° North 457 526 36,000  Level New York Center
08:57PM 35.0244 -72.3856 355° North 457 526 36,000 -60 Level New York Center
08:58PM 35.1511 -72.4086 352° North 457 526 35,900  Descending New York Center
08:59PM 35.2703 -72.4086 360° North 447 514 36,000  Climbing New York Center
09:00PM 35.3953 -72.4061 North 438 504 36,000 -60 Level New York Center
09:01PM 35.5289 -72.4064 360° North 443 510 35,900  Descending New York Center
09:02PM 35.6519 -72.4064 360° North 438 504 36,000  Climbing New York Center
09:03PM 35.7750 -72.4039 North 438 504 35,900  Descending New York Center
09:04PM 35.9003 -72.4017 North 434 499 36,000  Climbing New York Center
09:05PM 36.0172 -72.4042 359° North 434 499 36,000  Level New York Center
09:06PM 36.1422 -72.4017 North 440 506 36,000  Level New York Center
09:07PM 36.2592 -72.4017 360° North 435 501 36,000  Level New York Center
09:08PM 36.3886 -72.3992 North 442 509 36,000  Level New York Center
09:09PM 36.5117 -72.3967 North 442 509 36,000  Level New York Center
09:10PM 36.6369 -72.3969 360° North 442 509 36,000 -60 Level New York Center
09:11PM 36.7619 -72.3969 360° North 442 509 35,900  Descending New York Center
09:12PM 36.8517 -72.3964 360° North 436 502 36,000  Climbing New York Center
09:13PM 37.0042 -72.3764 North 447 514 36,000  Level New York Center
09:14PM 37.1192 -72.3581 North 434 499 36,000  Level New York Center
09:15PM 37.2447 -72.3425 North 434 499 36,000  Level New York Center
09:17PM 37.4831 -72.3058 North 429 494 36,000  Level New York Center
09:18PM 37.6064 -72.2875 North 430 495 36,000  Level New York Center
09:19PM 37.7025 -72.2683 North 411 473 36,000 -60 Level New York Center
09:20PM 37.8217 -72.2472 North 423 487 35,900 -60 Descending New York Center
09:21PM 37.9428 -72.2367 North 429 494 35,900  Level New York Center
09:22PM 38.0642 -72.2153 North 429 494 36,000  Climbing New York Center
09:23PM 38.1853 -72.2019 North 429 494 36,000  Level New York Center
09:24PM 38.3011 -72.2597 339° North 429 494 36,000  Level New York Center
09:25PM 38.4150 -72.3258 336° Northwest 439 505 36,000  Level New York Center
09:26PM 38.5286 -72.4081 330° Northwest 446 513 36,000  Level New York Center
09:27PM 38.6422 -72.4797 334° Northwest 457 526 36,000 -300 Level New York Center
09:28PM 38.7558 -72.5517 334° Northwest 457 526 35,500 -1,620 Descending New York Center
09:29PM 38.8694 -72.6292 332° Northwest 457 526 32,900 -2,940 Descending New York Center
09:30PM 38.9850 -72.6989 335° Northwest 457 526 29,700 -3,240 Descending New York Center
09:31PM 39.1025 -72.7717 334° Northwest 457 526 26,500 -2,820 Descending New York Center
09:32PM 39.2139 -72.8528 331° Northwest 463 533 24,100 -1,920 Descending New York Center
09:33PM 39.3058 -72.9494 321° Northwest 448 516 22,600 -1,380 Descending New York Center
09:34PM 39.3911 -73.0622 314° West 436 502 21,400 -1,740 Descending New York Center
09:35PM 39.4664 -73.1561 316° Northwest 431 496 19,200 -2,340 Descending New York Center
09:36PM 39.5539 -73.2667 316° Northwest 417 480 16,900 -2,400 Descending New York Center
09:37PM 39.6350 -73.3694 316° Northwest 405 466 14,400 -2,460 Descending New York Center
09:38PM 39.7117 -73.4719 314° West 385 443 12,000 -1,980 Descending New York Center
09:39PM 39.7847 -73.5614 317° Northwest 371 427 10,500 -1,620 Descending New York Center
09:40PM 39.8494 -73.6450 315° West 345 397 8,900 -780 Descending New York Center
09:41PM 39.9119 -73.7289 314° West 332 382 9,000  Climbing New York Center
09:42PM 39.9881 -73.7728 336° Northwest 296 341 9,000 -780 Level New York Center
09:43PM 40.0681 -73.7356 20° North 295 339 7,500 -1,200 Descending New York Center
09:44PM 40.1567 -73.6958 19° North 300 345 6,600 -1,020 Descending New York Center
09:45PM 40.2178 -73.6686 19° North 281 323 5,500 -1,260 Descending New York Center
09:46PM 40.3000 -73.6333 18° North 263 303 4,000 -1,260 Descending New York TRACON
09:47PM 40.3667 -73.6000 21° North 254 292 3,000 -660 Descending New York TRACON
09:48PM 40.4283 -73.5767 16° North 247 284 2,800 -540 Descending New York Center
09:49PM 40.5000 -73.5667 North 226 260 2,000 -420 Descending New York TRACON
09:50PM 40.5500 -73.6000 333° Northwest 181 208 2,000  Level New York TRACON